ACA841 EDDF-CYYZ
Flight info
| Callsign | ACA841 |
|---|---|
| Flight time | N/A |
| Altitude | 34000 |
| Route | OBOKA5G/25C OBOKA Z28 DIBIR DCT BUDIP DCT RAVLO Y70 OTBED L60 PENIL M144 BAGSO DCT ADBUS DCT DOGAL/M084F360 NATC ELSIR/N0484F360 N412A MIILS/N0492F380 DCT VILRO DCT SAVEX Q806 TUKIR RAGID6 |
| Aircraft | B77W/H-SDE1E2E3FGHIJ2J3J4J5M1RWXY/LB1D1 |
Departure
| Time | 2026-05-07 13:25 |
|---|---|
| Airport | Frankfurt Main Airport (EDDF) |
Arrival
| Time | N/A |
|---|---|
| Airport | Toronto Pearson International Airport (CYYZ) |
| Time | Latitude | Longitude | Altitude | Speed | Heading |
|---|---|---|---|---|---|
| 2026-05-07 12:38 | 50.04866 | 8.57528 | 370 ft | 0 kts | 205° |
| 2026-05-07 13:15 | 50.04876 | 8.57536 | 370 ft | 2 kts | 205° |
| 2026-05-07 13:16 | 50.04885 | 8.57542 | 370 ft | 2 kts | 204° |
| 2026-05-07 13:16 | 50.04899 | 8.57549 | 370 ft | 2 kts | 184° |
| 2026-05-07 13:16 | 50.04913 | 8.57547 | 370 ft | 2 kts | 163° |
| 2026-05-07 13:16 | 50.04927 | 8.57538 | 370 ft | 2 kts | 144° |
| 2026-05-07 13:17 | 50.04937 | 8.57522 | 370 ft | 2 kts | 125° |
| 2026-05-07 13:17 | 50.04941 | 8.57513 | 370 ft | 0 kts | 116° |
| 2026-05-07 13:17 | 50.04930 | 8.57546 | 370 ft | 6 kts | 116° |
| 2026-05-07 13:17 | 50.04910 | 8.57614 | 371 ft | 5 kts | 115° |
| 2026-05-07 13:18 | 50.04902 | 8.57640 | 371 ft | 0 kts | 115° |
| 2026-05-07 13:20 | 50.04901 | 8.57642 | 371 ft | 0 kts | 115° |
| 2026-05-07 13:20 | 50.04894 | 8.57667 | 371 ft | 4 kts | 114° |
| 2026-05-07 13:21 | 50.04874 | 8.57737 | 372 ft | 9 kts | 114° |
| 2026-05-07 13:21 | 50.04843 | 8.57843 | 372 ft | 11 kts | 126° |
| 2026-05-07 13:21 | 50.04784 | 8.57918 | 373 ft | 10 kts | 157° |
| 2026-05-07 13:21 | 50.04715 | 8.57957 | 373 ft | 11 kts | 160° |
| 2026-05-07 13:22 | 50.04637 | 8.58001 | 373 ft | 12 kts | 160° |
| 2026-05-07 13:22 | 50.04568 | 8.58062 | 373 ft | 10 kts | 108° |
| 2026-05-07 13:22 | 50.04578 | 8.58170 | 373 ft | 10 kts | 70° |
| 2026-05-07 13:22 | 50.04607 | 8.58282 | 374 ft | 11 kts | 70° |
| 2026-05-07 13:23 | 50.04636 | 8.58406 | 375 ft | 11 kts | 70° |
| 2026-05-07 13:23 | 50.04655 | 8.58515 | 376 ft | 9 kts | 101° |
| 2026-05-07 13:23 | 50.04617 | 8.58577 | 376 ft | 7 kts | 153° |
| 2026-05-07 13:23 | 50.04565 | 8.58610 | 376 ft | 9 kts | 159° |
| 2026-05-07 13:24 | 50.04506 | 8.58607 | 376 ft | 9 kts | 214° |
| 2026-05-07 13:24 | 50.04467 | 8.58508 | 375 ft | 13 kts | 249° |
| 2026-05-07 13:24 | 50.04395 | 8.58207 | 373 ft | 59 kts | 250° |
| 2026-05-07 13:24 | 50.04172 | 8.57273 | 366 ft | 124 kts | 249° |
| 2026-05-07 13:25 | 50.03795 | 8.55709 | 388 ft | 176 kts | 250° |
| 2026-05-07 13:25 | 50.03350 | 8.53906 | 901 ft | 185 kts | 249° |
| 2026-05-07 13:25 | 50.02879 | 8.52016 | 1583 ft | 194 kts | 253° |
| 2026-05-07 13:25 | 50.02672 | 8.49929 | 1983 ft | 204 kts | 276° |
| 2026-05-07 13:26 | 50.02839 | 8.47655 | 2383 ft | 218 kts | 279° |
| 2026-05-07 13:26 | 50.03009 | 8.45298 | 2982 ft | 224 kts | 274° |
| 2026-05-07 13:26 | 50.02861 | 8.42851 | 3489 ft | 236 kts | 262° |
| 2026-05-07 13:26 | 50.02550 | 8.40284 | 3910 ft | 252 kts | 261° |
| 2026-05-07 13:27 | 50.02214 | 8.37542 | 4463 ft | 263 kts | 262° |
| 2026-05-07 13:27 | 50.01882 | 8.34787 | 5200 ft | 265 kts | 261° |
| 2026-05-07 13:27 | 50.01543 | 8.31963 | 5944 ft | 267 kts | 261° |
| 2026-05-07 13:27 | 50.01310 | 8.29100 | 6630 ft | 268 kts | 275° |
| 2026-05-07 13:28 | 50.01733 | 8.26314 | 7246 ft | 271 kts | 292° |
| 2026-05-07 13:28 | 50.02474 | 8.23649 | 7986 ft | 271 kts | 295° |
| 2026-05-07 13:28 | 50.03258 | 8.20980 | 8686 ft | 274 kts | 295° |
| 2026-05-07 13:28 | 50.04042 | 8.18306 | 9313 ft | 277 kts | 295° |
| 2026-05-07 13:29 | 50.04834 | 8.15587 | 9972 ft | 280 kts | 294° |
| 2026-05-07 13:29 | 50.05680 | 8.12802 | 10449 ft | 290 kts | 299° |
| 2026-05-07 13:29 | 50.06834 | 8.10116 | 10746 ft | 307 kts | 308° |
| 2026-05-07 13:29 | 50.08194 | 8.07499 | 11080 ft | 322 kts | 309° |
| 2026-05-07 13:30 | 50.09643 | 8.04723 | 11451 ft | 338 kts | 309° |
| 2026-05-07 13:30 | 50.11145 | 8.01820 | 11845 ft | 353 kts | 309° |
| 2026-05-07 13:30 | 50.12700 | 7.98800 | 12258 ft | 367 kts | 308° |
| 2026-05-07 13:30 | 50.14320 | 7.95647 | 12794 ft | 378 kts | 308° |
| 2026-05-07 13:31 | 50.15977 | 7.92416 | 13550 ft | 383 kts | 308° |
| 2026-05-07 13:31 | 50.17629 | 7.89191 | 14361 ft | 387 kts | 308° |
| 2026-05-07 13:31 | 50.19309 | 7.85908 | 15150 ft | 392 kts | 308° |
| 2026-05-07 13:31 | 50.21020 | 7.82560 | 15951 ft | 396 kts | 308° |
| 2026-05-07 13:32 | 50.22720 | 7.79228 | 16732 ft | 401 kts | 308° |
| 2026-05-07 13:32 | 50.24608 | 7.75966 | 17493 ft | 405 kts | 317° |
| 2026-05-07 13:32 | 50.26810 | 7.73238 | 18217 ft | 411 kts | 326° |
| 2026-05-07 13:32 | 50.29305 | 7.71090 | 18918 ft | 416 kts | 335° |
| 2026-05-07 13:33 | 50.31970 | 7.69265 | 19665 ft | 420 kts | 336° |
| 2026-05-07 13:33 | 50.34638 | 7.67464 | 20397 ft | 424 kts | 336° |
| 2026-05-07 13:33 | 50.37357 | 7.65621 | 21124 ft | 428 kts | 336° |
| 2026-05-07 13:33 | 50.40102 | 7.63751 | 21769 ft | 433 kts | 336° |
| 2026-05-07 13:34 | 50.42863 | 7.61863 | 22378 ft | 439 kts | 336° |
| 2026-05-07 13:34 | 50.48465 | 7.58016 | 23654 ft | 447 kts | 336° |
| 2026-05-07 13:34 | 50.51329 | 7.56043 | 24265 ft | 451 kts | 336° |
| 2026-05-07 13:35 | 50.54189 | 7.54068 | 24851 ft | 456 kts | 335° |
| 2026-05-07 13:35 | 50.56978 | 7.51742 | 25426 ft | 459 kts | 328° |
| 2026-05-07 13:35 | 50.59678 | 7.49024 | 26013 ft | 462 kts | 327° |
| 2026-05-07 13:35 | 50.62381 | 7.46254 | 26598 ft | 465 kts | 327° |
| 2026-05-07 13:36 | 50.65111 | 7.43451 | 27151 ft | 469 kts | 327° |
| 2026-05-07 13:36 | 50.67857 | 7.40630 | 27697 ft | 472 kts | 327° |
| 2026-05-07 13:36 | 50.70615 | 7.37793 | 28231 ft | 476 kts | 327° |
| 2026-05-07 13:36 | 50.73256 | 7.34695 | 28723 ft | 479 kts | 318° |
| 2026-05-07 13:37 | 50.75608 | 7.30974 | 29226 ft | 482 kts | 310° |
| 2026-05-07 13:37 | 50.77628 | 7.26786 | 29829 ft | 482 kts | 305° |
| 2026-05-07 13:37 | 50.79536 | 7.22530 | 30565 ft | 479 kts | 305° |
| 2026-05-07 13:37 | 50.81443 | 7.18253 | 31316 ft | 476 kts | 305° |
| 2026-05-07 13:38 | 50.83327 | 7.14019 | 31955 ft | 472 kts | 305° |
| 2026-05-07 13:38 | 50.85206 | 7.09790 | 32483 ft | 471 kts | 305° |
| 2026-05-07 13:38 | 50.87082 | 7.05563 | 32941 ft | 470 kts | 305° |
| 2026-05-07 13:38 | 50.88953 | 7.01341 | 33375 ft | 470 kts | 305° |
| 2026-05-07 13:39 | 50.90816 | 6.97131 | 33816 ft | 469 kts | 305° |
| 2026-05-07 13:39 | 50.92692 | 6.92890 | 34011 ft | 471 kts | 305° |
| 2026-05-07 13:39 | 50.94564 | 6.88651 | 34028 ft | 469 kts | 305° |
| 2026-05-07 13:40 | 50.98275 | 6.80227 | 34032 ft | 467 kts | 305° |
| 2026-05-07 13:40 | 51.01980 | 6.71790 | 34030 ft | 468 kts | 305° |
| 2026-05-07 13:41 | 51.05655 | 6.63394 | 34032 ft | 466 kts | 305° |
| 2026-05-07 13:41 | 51.09343 | 6.54940 | 34036 ft | 465 kts | 304° |
| 2026-05-07 13:42 | 51.13028 | 6.46461 | 34032 ft | 466 kts | 304° |
| 2026-05-07 13:42 | 51.16680 | 6.38031 | 34036 ft | 467 kts | 304° |
| 2026-05-07 13:43 | 51.20361 | 6.29507 | 34043 ft | 467 kts | 303° |
| 2026-05-07 13:43 | 51.24032 | 6.20977 | 34042 ft | 468 kts | 303° |
| 2026-05-07 13:44 | 51.27700 | 6.12427 | 34044 ft | 467 kts | 303° |
| 2026-05-07 13:44 | 51.31244 | 6.03849 | 34042 ft | 466 kts | 302° |
| 2026-05-07 13:45 | 51.34765 | 5.95211 | 34040 ft | 465 kts | 302° |
| 2026-05-07 13:45 | 51.38440 | 5.86674 | 34037 ft | 466 kts | 309° |
| 2026-05-07 13:46 | 51.42854 | 5.79108 | 34042 ft | 469 kts | 313° |
| 2026-05-07 13:46 | 51.47371 | 5.71504 | 34043 ft | 470 kts | 312° |
| 2026-05-07 13:47 | 51.51855 | 5.63923 | 34046 ft | 470 kts | 312° |
| 2026-05-07 13:47 | 51.56350 | 5.56297 | 34049 ft | 471 kts | 312° |
| 2026-05-07 13:48 | 51.60828 | 5.48676 | 34048 ft | 470 kts | 312° |
| 2026-05-07 13:48 | 51.65290 | 5.41057 | 34049 ft | 471 kts | 312° |
| 2026-05-07 13:49 | 51.69776 | 5.33373 | 34047 ft | 471 kts | 311° |
| 2026-05-07 13:49 | 51.74240 | 5.25703 | 34046 ft | 471 kts | 311° |
| 2026-05-07 13:50 | 51.78708 | 5.18000 | 34047 ft | 472 kts | 311° |
| 2026-05-07 13:50 | 51.83189 | 5.10252 | 34052 ft | 473 kts | 311° |
| 2026-05-07 13:51 | 51.87637 | 5.02537 | 34050 ft | 472 kts | 311° |
| 2026-05-07 13:51 | 51.92105 | 4.94763 | 34050 ft | 472 kts | 311° |
| 2026-05-07 13:52 | 51.96557 | 4.86992 | 34047 ft | 473 kts | 311° |
| 2026-05-07 13:52 | 52.01031 | 4.79160 | 34053 ft | 474 kts | 311° |
| 2026-05-07 13:53 | 52.05479 | 4.71346 | 34064 ft | 473 kts | 311° |
| 2026-05-07 13:53 | 52.09946 | 4.63476 | 34065 ft | 473 kts | 311° |
| 2026-05-07 13:54 | 52.14396 | 4.55609 | 34063 ft | 474 kts | 311° |
| 2026-05-07 13:54 | 52.18829 | 4.47749 | 34070 ft | 474 kts | 311° |
| 2026-05-07 13:55 | 52.23271 | 4.39847 | 34073 ft | 474 kts | 311° |
| 2026-05-07 13:55 | 52.27706 | 4.31933 | 34076 ft | 474 kts | 311° |
| 2026-05-07 13:56 | 52.32134 | 4.24006 | 34080 ft | 474 kts | 311° |
| 2026-05-07 13:56 | 52.36545 | 4.16082 | 34080 ft | 472 kts | 311° |
| 2026-05-07 13:57 | 52.40947 | 4.08153 | 34082 ft | 474 kts | 311° |
| 2026-05-07 13:57 | 52.45359 | 4.00177 | 34089 ft | 480 kts | 310° |
| 2026-05-07 13:58 | 52.49838 | 3.92055 | 34089 ft | 482 kts | 311° |
| 2026-05-07 13:58 | 52.54357 | 3.83830 | 34095 ft | 490 kts | 313° |
| 2026-05-07 13:59 | 52.58870 | 3.75592 | 34096 ft | 487 kts | 313° |
| 2026-05-07 13:59 | 52.63408 | 3.67281 | 34093 ft | 489 kts | 313° |
| 2026-05-07 14:00 | 52.67912 | 3.59005 | 34096 ft | 487 kts | 313° |
| 2026-05-07 14:00 | 52.72400 | 3.50728 | 34097 ft | 487 kts | 313° |
| 2026-05-07 14:01 | 52.76878 | 3.42445 | 34094 ft | 486 kts | 313° |
| 2026-05-07 14:01 | 52.81290 | 3.34254 | 34095 ft | 487 kts | 313° |
| 2026-05-07 14:02 | 52.85762 | 3.25928 | 34095 ft | 487 kts | 313° |
| 2026-05-07 14:02 | 52.89944 | 3.17155 | 34091 ft | 490 kts | 301° |
| 2026-05-07 14:03 | 52.92538 | 3.06768 | 34094 ft | 493 kts | 285° |
| 2026-05-07 14:03 | 52.94117 | 2.95735 | 34094 ft | 494 kts | 283° |
| 2026-05-07 14:04 | 52.95619 | 2.84655 | 34095 ft | 494 kts | 283° |
| 2026-05-07 14:04 | 52.97088 | 2.73559 | 34096 ft | 496 kts | 283° |
| 2026-05-07 14:05 | 52.98535 | 2.62445 | 34096 ft | 495 kts | 283° |
| 2026-05-07 14:05 | 52.99964 | 2.51338 | 34096 ft | 495 kts | 283° |
| 2026-05-07 14:06 | 53.01385 | 2.40166 | 34097 ft | 496 kts | 283° |
| 2026-05-07 14:06 | 53.02735 | 2.29466 | 34094 ft | 495 kts | 282° |
| 2026-05-07 14:07 | 53.04128 | 2.18322 | 34094 ft | 496 kts | 282° |
| 2026-05-07 14:07 | 53.05516 | 2.07124 | 34094 ft | 496 kts | 282° |
| 2026-05-07 14:08 | 53.06894 | 1.95907 | 34094 ft | 495 kts | 282° |
| 2026-05-07 14:08 | 53.08253 | 1.84752 | 34099 ft | 496 kts | 282° |
| 2026-05-07 14:09 | 53.09600 | 1.73605 | 34095 ft | 495 kts | 282° |
| 2026-05-07 14:09 | 53.10946 | 1.62367 | 34095 ft | 496 kts | 282° |
| 2026-05-07 14:10 | 53.12286 | 1.51090 | 34089 ft | 496 kts | 282° |
| 2026-05-07 14:10 | 53.13604 | 1.39900 | 34089 ft | 496 kts | 282° |
| 2026-05-07 14:11 | 53.14910 | 1.28708 | 34080 ft | 496 kts | 281° |
| 2026-05-07 14:11 | 53.16208 | 1.17494 | 34079 ft | 495 kts | 281° |
| 2026-05-07 14:12 | 53.17493 | 1.06293 | 34078 ft | 495 kts | 281° |
| 2026-05-07 14:12 | 53.18779 | 0.94988 | 34073 ft | 496 kts | 281° |
| 2026-05-07 14:13 | 53.20049 | 0.83725 | 34071 ft | 497 kts | 281° |
| 2026-05-07 14:13 | 53.21305 | 0.72478 | 34069 ft | 495 kts | 281° |
| 2026-05-07 14:14 | 53.22546 | 0.61272 | 34069 ft | 496 kts | 281° |
| 2026-05-07 14:14 | 53.23785 | 0.49969 | 34067 ft | 494 kts | 280° |
| 2026-05-07 14:15 | 53.25008 | 0.38716 | 34067 ft | 496 kts | 280° |
| 2026-05-07 14:15 | 53.26224 | 0.27425 | 34063 ft | 495 kts | 279° |
| 2026-05-07 14:16 | 53.27423 | 0.16185 | 34062 ft | 495 kts | 279° |
| 2026-05-07 14:16 | 53.28616 | 0.04898 | 34061 ft | 495 kts | 279° |
| 2026-05-07 14:17 | 53.29795 | -0.06371 | 34062 ft | 495 kts | 279° |
| 2026-05-07 14:17 | 53.30961 | -0.17625 | 34061 ft | 493 kts | 279° |
| 2026-05-07 14:18 | 53.32121 | -0.28933 | 34058 ft | 494 kts | 279° |
| 2026-05-07 14:18 | 53.33270 | -0.40236 | 34057 ft | 495 kts | 279° |
| 2026-05-07 14:19 | 53.34404 | -0.51508 | 34050 ft | 494 kts | 279° |
| 2026-05-07 14:19 | 53.35535 | -0.62865 | 34047 ft | 495 kts | 279° |
| 2026-05-07 14:20 | 53.36647 | -0.74137 | 34040 ft | 493 kts | 278° |
| 2026-05-07 14:20 | 53.37756 | -0.85481 | 34025 ft | 493 kts | 278° |
| 2026-05-07 14:21 | 53.38846 | -0.96747 | 34023 ft | 493 kts | 278° |
| 2026-05-07 14:21 | 53.39924 | -1.08014 | 34014 ft | 493 kts | 278° |
| 2026-05-07 14:22 | 53.40994 | -1.19309 | 34015 ft | 493 kts | 278° |
| 2026-05-07 14:22 | 53.42052 | -1.30612 | 34011 ft | 494 kts | 278° |
| 2026-05-07 14:23 | 53.43106 | -1.41984 | 34005 ft | 493 kts | 278° |